createdAt,value
2019-02-10T00:03:53.355Z,98.84
2019-02-10T00:06:25.697Z,98.83
2019-02-10T00:09:12.062Z,98.84
2019-02-10T00:11:42.706Z,98.71
2019-02-10T00:14:13.544Z,98.67
2019-02-10T00:16:57.075Z,99.15
2019-02-10T00:19:42.632Z,99.92
2019-02-10T00:22:31.859Z,100.00
2019-02-10T00:25:02.222Z,100.00
2019-02-10T00:27:46.230Z,100.00
2019-02-10T00:30:16.613Z,100.00
2019-02-10T00:32:47.059Z,100.00
2019-02-10T00:35:36.813Z,100.00
2019-02-10T00:38:07.333Z,100.00
2019-02-10T00:43:58.493Z,100.00
2019-02-10T00:46:47.994Z,100.00
2019-02-10T00:49:18.429Z,100.00
2019-02-10T00:52:01.717Z,100.00
2019-02-10T00:57:51.074Z,100.00
2019-02-10T01:00:23.721Z,100.00
2019-02-10T01:02:54.113Z,100.00
2019-02-10T01:05:24.540Z,100.00
2019-02-10T01:08:14.246Z,100.00
2019-02-10T01:13:41.060Z,100.00
2019-02-10T01:16:23.408Z,100.00
2019-02-10T01:22:06.426Z,100.00
2019-02-10T01:24:56.064Z,100.00
2019-02-10T01:30:28.849Z,100.00
2019-02-10T01:32:59.449Z,100.00
2019-02-10T01:35:29.520Z,100.00
2019-02-10T01:37:59.798Z,100.00
2019-02-10T01:40:41.685Z,100.00
2019-02-10T01:43:11.987Z,100.00
2019-02-10T01:46:01.651Z,100.00
2019-02-10T01:48:32.370Z,100.00
2019-02-10T01:51:04.693Z,100.00
2019-02-10T01:53:34.999Z,100.00
2019-02-10T01:56:16.496Z,100.00
2019-02-10T01:58:46.809Z,100.00
2019-02-10T02:01:17.111Z,100.00
2019-02-10T02:04:07.186Z,100.00
2019-02-10T02:06:39.342Z,99.86
2019-02-10T02:12:20.664Z,100.00
2019-02-10T02:15:11.531Z,99.94
2019-02-10T02:17:42.309Z,99.45
2019-02-10T02:20:31.718Z,99.02
2019-02-10T02:23:01.991Z,98.75
2019-02-10T02:28:52.494Z,98.69
2019-02-10T02:31:41.927Z,98.82
2019-02-10T02:34:12.337Z,97.98
2019-02-10T02:37:07.333Z,97.39
2019-02-10T02:39:38.052Z,97.46
2019-02-10T02:42:09.169Z,97.52
2019-02-10T02:44:51.054Z,97.90
2019-02-10T02:47:33.415Z,97.99
2019-02-10T02:52:52.882Z,98.80
2019-02-10T02:55:23.650Z,98.73
2019-02-10T02:57:53.946Z,98.84
2019-02-10T03:00:24.316Z,99.18
2019-02-10T03:02:54.653Z,99.68
2019-02-10T03:05:29.043Z,99.84
2019-02-10T03:07:59.260Z,99.93
2019-02-10T03:10:41.762Z,99.78
2019-02-10T03:13:33.899Z,99.04
2019-02-10T03:16:04.227Z,99.10
2019-02-10T03:18:34.766Z,98.52
2019-02-10T03:21:17.254Z,97.48
2019-02-10T03:23:59.521Z,96.74
2019-02-10T03:26:29.817Z,96.58
2019-02-10T03:29:00.122Z,96.58
2019-02-10T03:37:02.062Z,94.36
2019-02-10T03:40:10.377Z,93.88
2019-02-10T03:43:01.305Z,93.74
2019-02-10T03:45:34.244Z,92.53
2019-02-10T03:48:15.863Z,91.94
2019-02-10T03:51:08.210Z,91.76
2019-02-10T03:56:28.991Z,91.59
2019-02-10T03:59:11.178Z,91.59
2019-02-10T04:01:41.431Z,91.60
2019-02-10T04:04:11.756Z,91.93
2019-02-10T04:06:54.167Z,91.62
2019-02-10T04:09:36.230Z,91.07
2019-02-10T04:12:06.903Z,91.12
2019-02-10T04:14:48.628Z,90.70
2019-02-10T04:17:30.919Z,90.51
2019-02-10T04:20:01.211Z,89.87
2019-02-10T04:22:31.902Z,89.43
2019-02-10T04:25:14.366Z,89.18
2019-02-10T04:27:44.610Z,89.22
2019-02-10T04:33:34.002Z,88.99
2019-02-10T04:36:04.296Z,89.11
2019-02-10T04:41:38.787Z,88.73
2019-02-10T04:44:11.080Z,88.39
2019-02-10T04:46:53.292Z,88.22
2019-02-10T04:49:43.515Z,88.27
2019-02-10T04:52:29.953Z,87.91
2019-02-10T04:55:00.503Z,86.86
2019-02-10T04:58:17.082Z,86.40
2019-02-10T05:00:47.516Z,85.74
2019-02-10T05:03:18.126Z,86.20
2019-02-10T05:06:08.072Z,85.41
2019-02-10T05:08:38.406Z,85.02
2019-02-10T05:11:27.806Z,84.17
2019-02-10T05:14:09.675Z,83.57
2019-02-10T05:16:39.956Z,83.05
2019-02-10T05:19:10.253Z,82.38
2019-02-10T05:21:59.590Z,82.67
2019-02-10T05:24:29.864Z,82.26
2019-02-10T05:27:00.039Z,82.31
2019-02-10T05:29:44.497Z,82.63
2019-02-10T05:32:14.856Z,82.98
2019-02-10T05:34:47.341Z,83.85
2019-02-10T05:37:29.595Z,83.68
2019-02-10T05:40:11.878Z,84.15
2019-02-10T05:42:43.146Z,83.72
2019-02-10T05:48:19.675Z,83.54
2019-02-10T05:50:50.366Z,83.87
2019-02-10T05:53:31.982Z,84.50
2019-02-10T05:56:02.379Z,85.08
2019-02-10T05:58:32.947Z,86.03
2019-02-10T06:01:42.324Z,86.96
2019-02-10T06:04:12.753Z,87.43
2019-02-10T06:06:44.980Z,87.66
2019-02-10T06:09:15.299Z,87.40
2019-02-10T06:12:18.125Z,87.47
2019-02-10T06:17:30.832Z,88.84
2019-02-10T06:20:32.307Z,88.99
2019-02-10T06:23:02.683Z,88.82
2019-02-10T06:25:33.950Z,88.93
2019-02-10T06:28:23.604Z,88.36
2019-02-10T06:31:13.217Z,88.38
2019-02-10T06:33:43.490Z,88.15
2019-02-10T06:36:32.861Z,88.57
2019-02-10T06:41:44.387Z,88.85
2019-02-10T06:47:17.088Z,89.88
2019-02-10T06:49:59.295Z,90.43
2019-02-10T06:52:29.723Z,89.95
2019-02-10T06:55:00.969Z,89.50
2019-02-10T06:57:49.189Z,88.73
2019-02-10T07:00:42.247Z,88.14
2019-02-10T07:06:54.152Z,87.51
2019-02-10T07:10:02.540Z,87.14
2019-02-10T07:12:52.341Z,86.98
2019-02-10T07:16:01.080Z,86.23
2019-02-10T07:19:09.783Z,86.02
2019-02-10T07:21:44.219Z,86.19
2019-02-10T07:24:59.104Z,86.56
2019-02-10T07:30:43.527Z,86.95
2019-02-10T07:33:53.303Z,87.32
2019-02-10T07:36:52.493Z,87.71
2019-02-10T07:40:06.763Z,88.21
2019-02-10T07:43:18.142Z,88.05
2019-02-10T07:46:29.310Z,88.09
2019-02-10T07:49:23.040Z,88.35
2019-02-10T07:55:39.568Z,86.61
2019-02-10T07:58:48.287Z,86.51
2019-02-10T08:01:41.892Z,86.31
2019-02-10T08:04:50.581Z,86.00
2019-02-10T08:08:02.047Z,85.17
2019-02-10T08:10:44.072Z,84.83
2019-02-10T08:13:52.681Z,84.03
2019-02-10T08:16:40.448Z,83.71
2019-02-10T08:20:22.998Z,83.32
2019-02-10T08:23:28.327Z,83.54
2019-02-10T08:26:45.184Z,82.84
2019-02-10T08:33:25.851Z,82.89
2019-02-10T08:36:34.598Z,82.08
2019-02-10T08:39:44.394Z,81.39
2019-02-10T08:42:54.225Z,80.60
2019-02-10T08:46:02.720Z,80.10
2019-02-10T08:49:39.526Z,80.53
2019-02-10T08:52:51.938Z,80.82
2019-02-10T09:02:01.052Z,80.49
2019-02-10T09:04:32.953Z,81.39
2019-02-10T09:10:26.067Z,79.59
2019-02-10T09:16:13.751Z,78.86
2019-02-10T09:24:29.900Z,75.43
2019-02-10T09:27:11.790Z,74.91
2019-02-10T09:29:42.076Z,74.93
2019-02-10T09:35:09.681Z,73.19
2019-02-10T09:38:32.685Z,73.85
2019-02-10T09:44:43.458Z,71.85
2019-02-10T09:47:13.752Z,71.09
2019-02-10T09:49:56.162Z,70.82
2019-02-10T09:52:40.128Z,71.31
2019-02-10T09:55:12.431Z,70.63
2019-02-10T10:00:58.902Z,70.91
2019-02-10T10:09:19.327Z,69.50
2019-02-10T10:18:18.674Z,74.06
2019-02-10T10:21:33.844Z,74.68
2019-02-10T10:24:06.607Z,75.11
2019-02-10T10:29:39.561Z,73.97
2019-02-10T10:35:42.242Z,73.97
2019-02-10T10:38:06.016Z,75.47
2019-02-10T10:46:51.642Z,79.32
2019-02-10T10:49:47.730Z,81.51
2019-02-10T10:55:34.947Z,83.50
2019-02-10T11:08:25.580Z,81.95
2019-02-10T11:14:41.132Z,81.29
2019-02-10T11:17:43.347Z,81.50
2019-02-10T11:20:54.826Z,82.13
2019-02-10T11:24:14.197Z,82.60
2019-02-10T11:29:57.337Z,82.92
2019-02-10T11:35:45.101Z,82.16
2019-02-10T11:57:21.904Z,79.03
2019-02-10T12:03:03.046Z,76.89
2019-02-10T12:05:54.932Z,75.59
2019-02-10T12:08:34.990Z,75.08
2019-02-10T12:14:32.718Z,74.53
2019-02-10T12:20:13.724Z,75.04
2019-02-10T12:23:03.395Z,74.79
2019-02-10T12:26:13.710Z,75.06
2019-02-10T12:34:52.536Z,78.52
2019-02-10T12:37:40.651Z,80.33
2019-02-10T12:40:27.843Z,80.38
2019-02-10T12:43:09.561Z,81.25
2019-02-10T12:49:05.322Z,83.50
2019-02-10T12:52:16.379Z,83.50
2019-02-10T12:58:23.196Z,83.15
2019-02-10T13:04:14.129Z,81.25
2019-02-10T13:06:55.648Z,80.68
2019-02-10T13:09:45.205Z,81.33
2019-02-10T13:12:35.844Z,80.72
2019-02-10T13:15:29.061Z,79.58
2019-02-10T13:30:53.366Z,75.68
2019-02-10T13:33:34.812Z,75.17
2019-02-10T13:36:08.189Z,75.51
2019-02-10T13:39:59.532Z,75.82
2019-02-10T13:41:56.609Z,76.21
2019-02-10T13:44:46.312Z,74.93
2019-02-10T13:53:09.108Z,73.19
2019-02-10T13:56:39.082Z,72.89
2019-02-10T13:59:49.282Z,72.73
2019-02-10T14:08:52.075Z,71.67
2019-02-10T14:14:44.157Z,72.24
2019-02-10T14:17:38.083Z,71.41
2019-02-10T14:20:48.597Z,71.67
2019-02-10T14:26:46.448Z,71.98
2019-02-10T14:29:34.075Z,72.47
2019-02-10T14:32:02.872Z,71.03
2019-02-10T14:34:45.126Z,70.51
2019-02-10T14:37:17.068Z,69.91
2019-02-10T14:46:37.572Z,69.02
2019-02-10T14:52:10.052Z,67.65
2019-02-10T14:55:02.194Z,66.98
2019-02-10T14:58:01.136Z,66.91
2019-02-10T15:01:08.712Z,67.44
2019-02-10T15:09:13.815Z,68.58
2019-02-10T15:11:55.813Z,68.60
2019-02-10T15:14:33.079Z,68.14
2019-02-10T15:17:24.773Z,67.85
2019-02-10T15:19:55.224Z,67.87
2019-02-10T15:22:56.033Z,67.33
2019-02-10T15:26:02.407Z,67.91
2019-02-10T15:28:59.344Z,69.28
2019-02-10T15:31:14.599Z,69.60
2019-02-10T15:34:06.509Z,70.90
2019-02-10T15:36:55.658Z,73.27
2019-02-10T15:40:22.956Z,76.99
2019-02-10T15:43:04.797Z,79.59
2019-02-10T15:46:03.212Z,83.13
2019-02-10T15:48:37.361Z,85.62
2019-02-10T15:51:09.925Z,89.18
2019-02-10T15:53:40.168Z,89.97
2019-02-10T15:56:33.522Z,91.39
2019-02-10T15:59:03.765Z,93.04
2019-02-10T16:04:57.946Z,96.41
2019-02-10T16:07:41.401Z,97.99
2019-02-10T16:11:05.349Z,98.63
2019-02-10T16:16:31.863Z,100.00
2019-02-10T16:19:31.736Z,100.00
2019-02-10T16:25:15.983Z,99.82
2019-02-10T16:28:37.895Z,100.00
2019-02-10T16:34:44.066Z,100.00
2019-02-10T16:40:37.206Z,100.00
2019-02-10T16:43:09.160Z,100.00
2019-02-10T16:45:58.785Z,100.00
2019-02-10T16:51:26.256Z,100.00
2019-02-10T16:54:36.239Z,100.00
2019-02-10T16:57:27.078Z,100.00
2019-02-10T17:00:55.250Z,100.00
2019-02-10T17:11:14.435Z,100.00
2019-02-10T17:13:56.953Z,100.00
2019-02-10T17:16:50.502Z,100.00
2019-02-10T17:25:21.097Z,100.00
2019-02-10T17:28:03.358Z,100.00
2019-02-10T17:30:52.810Z,100.00
2019-02-10T17:33:23.600Z,100.00
2019-02-10T17:36:07.968Z,100.00
2019-02-10T17:38:59.143Z,100.00
2019-02-10T17:44:39.694Z,100.00
2019-02-10T17:53:05.652Z,100.00
2019-02-10T17:56:06.631Z,100.00
2019-02-10T17:59:30.292Z,100.00
2019-02-10T18:07:30.710Z,100.00
2019-02-10T18:10:13.150Z,100.00
2019-02-10T18:12:43.538Z,100.00
2019-02-10T18:16:29.974Z,100.00
2019-02-10T18:19:19.269Z,100.00
2019-02-10T18:22:08.799Z,100.00
2019-02-10T18:25:16.230Z,100.00
2019-02-10T18:28:13.400Z,100.00
2019-02-10T18:30:58.242Z,100.00
2019-02-10T18:33:56.868Z,100.00
2019-02-10T18:40:18.788Z,100.00
2019-02-10T18:43:30.289Z,100.00
2019-02-10T18:49:48.948Z,100.00
2019-02-10T18:52:57.242Z,100.00
2019-02-10T18:55:49.228Z,100.00
2019-02-10T18:58:36.423Z,100.00
2019-02-10T19:01:29.017Z,100.00
2019-02-10T19:04:28.264Z,100.00
2019-02-10T19:07:25.225Z,100.00
2019-02-10T19:13:51.380Z,100.00
2019-02-10T19:17:11.617Z,100.00
2019-02-10T19:26:06.343Z,100.00
2019-02-10T19:28:58.633Z,100.00
2019-02-10T19:32:25.985Z,100.00
2019-02-10T19:35:18.002Z,100.00
2019-02-10T19:47:54.933Z,100.00
2019-02-10T19:50:39.235Z,100.00
2019-02-10T19:56:36.721Z,100.00
2019-02-10T20:02:41.389Z,100.00
2019-02-10T20:05:31.402Z,100.00
2019-02-10T20:08:32.036Z,100.00
2019-02-10T20:14:47.790Z,100.00
2019-02-10T20:21:04.873Z,100.00
2019-02-10T20:26:44.229Z,100.00
2019-02-10T20:29:35.095Z,100.00
2019-02-10T20:32:18.282Z,100.00
2019-02-10T20:35:20.373Z,100.00
2019-02-10T20:37:56.397Z,100.00
2019-02-10T20:40:40.561Z,100.00
2019-02-10T20:44:24.819Z,100.00
2019-02-10T20:46:59.781Z,100.00
2019-02-10T20:49:51.219Z,100.00
2019-02-10T20:52:46.219Z,100.00
2019-02-10T20:55:34.794Z,100.00
2019-02-10T20:58:27.095Z,100.00
2019-02-10T21:04:22.446Z,100.00
2019-02-10T21:07:12.114Z,100.00
2019-02-10T21:09:54.085Z,100.00
2019-02-10T21:12:45.119Z,100.00
2019-02-10T21:15:34.212Z,100.00
2019-02-10T21:18:23.754Z,100.00
2019-02-10T21:24:21.403Z,100.00
2019-02-10T21:30:03.355Z,100.00
2019-02-10T21:36:01.036Z,100.00
2019-02-10T21:39:02.707Z,100.00
2019-02-10T21:45:22.175Z,100.00
2019-02-10T21:47:57.713Z,100.00
2019-02-10T21:50:27.958Z,100.00
2019-02-10T21:52:58.313Z,100.00
2019-02-10T21:55:49.325Z,100.00
2019-02-10T22:01:24.660Z,100.00
2019-02-10T22:04:16.442Z,100.00
2019-02-10T22:06:48.731Z,100.00
2019-02-10T22:12:40.496Z,100.00
2019-02-10T22:15:52.286Z,100.00
2019-02-10T22:18:26.974Z,100.00
2019-02-10T22:21:17.989Z,100.00
2019-02-10T22:26:50.333Z,100.00
2019-02-10T22:32:10.021Z,100.00
2019-02-10T22:37:48.781Z,100.00
2019-02-10T22:40:36.452Z,100.00
2019-02-10T22:46:11.028Z,100.00
2019-02-10T22:48:53.281Z,100.00
2019-02-10T22:51:24.489Z,100.00
2019-02-10T22:53:55.164Z,100.00
2019-02-10T22:57:13.903Z,100.00
2019-02-10T22:59:45.455Z,100.00
2019-02-10T23:02:21.256Z,100.00
2019-02-10T23:05:11.002Z,100.00
2019-02-10T23:07:43.744Z,100.00
2019-02-10T23:10:45.181Z,100.00
2019-02-10T23:13:17.498Z,100.00
2019-02-10T23:25:07.393Z,100.00
2019-02-10T23:28:03.747Z,100.00
2019-02-10T23:30:34.122Z,100.00
2019-02-10T23:33:16.232Z,100.00
2019-02-10T23:36:25.932Z,100.00
2019-02-10T23:38:56.261Z,100.00
2019-02-10T23:41:45.670Z,100.00
2019-02-10T23:44:34.876Z,100.00
2019-02-10T23:47:05.195Z,100.00
2019-02-10T23:49:51.746Z,100.00
2019-02-10T23:52:22.027Z,100.00
2019-02-10T23:54:52.544Z,100.00
2019-02-10T23:57:34.534Z,100.00
